.
WxDataArchive / Data Records for 2009-08-10
2009-08-09 August 2009 2009-08-11

Data Records for Monday, 10 August 2009

Time	Temp	Chill	HIndex	Humid	Dewpt	 Wind 	HiWind	WindDir	Rain 	Barom 
-----	----	-----	------	-----	-----	------	------	-------	-----	----- 
00:00	80.7	80.7	84.4	72	70.8	1	4	248	0.00	29.973 
00:05	80.7	80.7	84.4	72	70.8	2	4	248	0.00	29.973 
00:10	80.7	80.7	84.4	72	70.8	1	2	248	0.00	29.973 
00:15	80.7	80.7	84.4	72	70.8	1	3	248	0.00	29.979 
00:20	80.7	80.7	84.4	72	70.8	1	5	270	0.00	29.979 
00:25	80.7	80.7	84.4	72	70.8	1	3	248	0.00	29.979 
00:30	80.7	80.7	84.4	72	70.8	1	3	270	0.00	29.980 
00:35	80.7	80.7	84.6	73	71.2	1	3	270	0.00	29.980 
00:40	80.5	80.5	84.2	73	71.0	1	4	248	0.00	29.980 
00:45	80.3	80.3	83.9	73	70.8	1	5	248	0.00	29.980 
00:50	80.3	80.3	84.0	74	71.2	2	4	248	0.00	29.980 
00:55	80.3	80.3	84.0	74	71.2	1	5	248	0.00	29.980 
01:00	80.1	80.1	83.6	74	71.0	1	3	248	0.00	29.977 
01:05	79.9	79.9	83.4	75	71.2	1	4	248	0.00	29.977 
01:10	79.9	79.9	83.4	75	71.2	2	6	248	0.00	29.977 
01:15	79.9	79.9	83.3	74	70.8	2	6	248	0.00	29.972 
01:20	79.9	79.9	83.3	74	70.8	2	4	248	0.00	29.972 
01:25	79.8	79.8	83.2	75	71.1	1	4	248	0.00	29.972 
01:30	79.6	79.6	82.8	75	71.0	1	5	248	0.00	29.970 
01:35	79.6	79.6	82.8	75	71.0	1	5	248	0.00	29.970 
01:40	79.6	79.6	82.8	75	71.0	1	5	270	0.00	29.970 
01:45	79.6	79.6	82.8	75	71.0	2	7	248	0.00	29.972 
01:50	79.6	79.6	82.7	74	70.6	2	7	270	0.00	29.972 
01:55	79.6	79.6	82.7	74	70.6	2	5	248	0.00	29.972 
02:00	79.6	79.6	82.7	74	70.6	2	6	270	0.00	29.966 
02:05	79.6	79.6	82.7	74	70.6	2	5	270	0.00	29.966 
02:10	79.6	79.6	82.7	74	70.6	2	6	292	0.00	29.966 
02:15	79.4	79.4	82.4	74	70.4	1	5	248	0.00	29.965 
02:20	79.2	79.2	82.1	75	70.6	2	4	270	0.00	29.965 
02:25	79.0	79.0	81.8	75	70.4	2	5	248	0.00	29.965 
02:30	78.8	78.8	81.5	75	70.2	1	3	248	0.00	29.961 
02:35	78.8	78.8	81.5	76	70.6	2	7	270	0.00	29.961 
02:40	78.8	78.8	81.5	76	70.6	2	4	248	0.00	29.961 
02:45	78.6	78.6	81.2	76	70.4	1	3	248	0.00	29.949 
02:50	78.6	78.6	81.2	76	70.4	1	4	248	0.00	29.949 
02:55	78.5	78.5	81.1	77	70.7	1	3	248	0.00	29.949 
03:00	78.3	78.3	80.7	77	70.5	1	4	248	0.00	29.952 
03:05	78.3	78.3	80.7	77	70.5	1	4	270	0.00	29.952 
03:10	78.1	78.1	80.4	77	70.3	1	3	270	0.00	29.952 
03:15	78.1	78.1	80.4	77	70.3	1	5	270	0.00	29.958 
03:20	77.9	77.9	80.1	78	70.5	1	3	248	0.00	29.958 
03:25	77.7	77.7	79.7	78	70.3	1	4	248	0.00	29.958 
03:30	77.7	77.7	79.7	78	70.3	1	5	270	0.00	29.963 
03:35	77.7	77.7	79.7	78	70.3	1	3	270	0.00	29.963 
03:40	77.6	77.6	79.6	79	70.6	0	1	270	0.00	29.963 
03:45	77.4	77.4	79.2	80	70.7	0	2	270	0.00	29.965 
03:50	77.2	77.2	78.9	80	70.5	0	2	270	0.00	29.965 
03:55	77.0	77.0	78.6	80	70.3	0	2	270	0.00	29.965 
04:00	76.8	76.8	78.2	81	70.5	0	2	270	0.00	29.973 
04:05	76.8	76.8	78.2	81	70.5	0	2	270	0.00	29.973 
04:10	76.7	76.7	78.0	81	70.4	0	1	270	0.00	29.973 
04:15	76.5	76.5	77.7	82	70.6	0	1	270	0.00	29.970 
04:20	76.3	76.3	77.3	82	70.4	0	2	270	0.00	29.970 
04:25	76.1	76.1	76.9	83	70.5	0	2	270	0.00	29.970 
04:30	76.0	76.0	76.7	83	70.4	0	1	270	0.00	29.973 
04:35	75.8	75.8	76.4	83	70.3	0	1	270	0.00	29.973 
04:40	75.6	75.6	76.0	84	70.4	0	1	270	0.00	29.973 
04:45	75.4	75.4	75.7	84	70.2	0	1	270	0.00	29.980 
04:50	75.3	75.3	75.4	85	70.5	0	1	270	0.00	29.980 
04:55	75.3	75.3	75.4	85	70.5	0	1	270	0.00	29.980 
05:00	75.1	75.1	75.0	85	70.3	0	1	270	0.00	29.982 
05:05	75.1	75.1	75.0	85	70.3	0	1	270	0.00	29.982 
05:10	74.9	74.9	74.9	86	70.4	0	0	---	0.00	29.982 
05:15	74.9	74.9	74.9	86	70.4	0	1	270	0.00	29.981 
05:20	74.7	74.7	74.7	86	70.2	0	1	270	0.00	29.981 
05:25	74.6	74.6	74.6	87	70.5	0	1	270	0.00	29.981 
05:30	74.6	74.6	74.6	87	70.5	0	1	270	0.00	29.980 
05:35	74.4	74.4	74.4	87	70.3	0	0	---	0.00	29.980 
05:40	74.4	74.4	74.4	88	70.6	0	0	---	0.00	29.980 
05:45	74.4	74.4	74.4	88	70.6	0	0	---	0.00	29.982 
05:50	74.4	74.4	74.4	88	70.6	0	0	---	0.00	29.982 
05:55	74.6	74.6	74.6	88	70.8	0	1	270	0.00	29.982 
06:00	74.6	74.6	74.6	88	70.8	0	1	270	0.00	29.981 
06:05	74.7	74.7	74.7	88	70.9	0	0	---	0.00	29.981 
06:10	74.7	74.7	74.7	88	70.9	0	2	270	0.00	29.981 
06:15	74.7	74.7	74.7	88	70.9	0	1	270	0.00	29.976 
06:20	74.7	74.7	74.7	87	70.6	0	1	270	0.00	29.976 
06:25	74.6	74.6	74.6	88	70.8	0	1	270	0.00	29.976 
06:30	74.4	74.4	74.4	88	70.6	0	1	270	0.00	29.973 
06:35	74.0	74.0	74.0	88	70.2	0	1	270	0.00	29.973 
06:40	73.9	73.9	73.9	88	70.1	0	2	270	0.00	29.973 
06:45	73.9	73.9	73.9	89	70.4	0	1	270	0.00	29.973 
06:50	73.7	73.7	73.7	89	70.2	0	2	270	0.00	29.973 
06:55	73.5	73.5	73.5	89	70.0	0	2	248	0.00	29.973 
07:00	73.5	73.5	73.5	90	70.4	0	1	248	0.00	29.968 
07:05	73.3	73.3	73.3	90	70.2	0	2	248	0.00	29.968 
07:10	73.3	73.3	73.3	90	70.2	0	1	248	0.00	29.968 
07:15	73.3	73.3	73.3	91	70.5	0	3	248	0.00	29.967 
07:20	73.3	73.3	73.3	91	70.5	0	1	248	0.00	29.967 
07:25	73.3	73.3	73.3	91	70.5	0	3	248	0.00	29.967 
07:30	73.5	73.5	73.5	91	70.7	0	2	248	0.00	29.969 
07:35	73.5	73.5	73.5	91	70.7	0	2	248	0.00	29.969 
07:40	73.7	73.7	73.7	91	70.9	0	2	248	0.00	29.969 
07:45	73.7	73.7	73.7	91	70.9	1	3	248	0.00	29.963 
07:50	73.9	73.9	73.9	90	70.8	0	2	248	0.00	29.963 
07:55	74.2	74.2	74.2	90	71.1	1	3	248	0.00	29.963 
08:00	74.4	74.4	74.4	90	71.3	0	2	248	0.00	29.954 
08:05	74.7	74.7	74.7	89	71.2	0	2	270	0.00	29.954 
08:10	75.1	75.1	74.6	88	71.3	0	2	270	0.00	29.954 
08:15	75.3	75.3	75.0	88	71.5	1	3	270	0.00	29.953 
08:20	75.6	75.6	75.6	87	71.4	1	3	270	0.00	29.953 
08:25	76.0	76.0	76.4	87	71.8	0	2	270	0.00	29.953 
08:30	76.3	76.3	77.0	86	71.8	0	2	270	0.00	29.952 
08:35	76.5	76.5	77.5	85	71.6	1	3	270	0.00	29.952 
08:40	76.8	76.8	78.0	85	71.9	1	3	270	0.00	29.952 
08:45	77.2	77.2	78.8	84	72.0	1	4	292	0.00	29.943 
08:50	77.4	77.4	79.2	84	72.2	1	4	0	0.00	29.943 
08:55	77.6	77.6	79.6	83	72.0	1	4	270	0.00	29.943 
09:00	77.7	77.7	79.8	83	72.1	2	5	248	0.00	29.952 
09:05	77.9	77.9	80.2	83	72.3	1	3	248	0.00	29.952 
09:10	78.1	78.1	80.5	82	72.1	2	4	270	0.00	29.952 
09:15	78.5	78.5	81.3	82	72.5	1	3	248	0.00	29.960 
09:20	78.8	78.8	81.9	81	72.5	1	4	270	0.00	29.960 
09:25	79.2	79.2	82.7	81	72.8	2	6	315	0.00	29.960 
09:30	79.2	79.2	82.5	79	72.1	3	6	270	0.00	29.966 
09:35	79.6	79.6	83.3	79	72.5	1	3	270	0.00	29.966 
09:40	79.8	79.8	83.6	78	72.3	2	4	270	0.00	29.966 
09:45	79.9	79.9	83.6	77	72.0	2	5	248	0.00	29.967 
09:50	80.1	80.1	84.0	77	72.2	2	4	292	0.00	29.967 
09:55	80.3	80.3	84.4	77	72.4	2	6	248	0.00	29.967 
10:00	80.7	80.7	85.1	76	72.4	2	5	270	0.00	29.967 
10:05	80.7	80.7	84.9	75	72.0	3	6	248	0.00	29.967 
10:10	80.7	80.7	84.9	75	72.0	3	5	270	0.00	29.967 
10:15	81.1	81.1	85.5	74	72.0	2	5	248	0.00	29.967 
10:20	81.4	81.4	86.1	74	72.3	1	4	248	0.00	29.967 
10:25	82.0	82.0	87.3	74	72.9	1	4	248	0.00	29.967 
10:30	82.6	82.6	88.4	73	73.0	2	4	248	0.00	29.973 
10:35	83.0	83.0	88.4	70	72.2	2	5	270	0.00	29.973 
10:40	82.8	82.8	87.7	69	71.6	2	4	292	0.00	29.973 
10:45	83.2	83.2	88.5	69	71.9	1	3	248	0.00	29.973 
10:50	83.4	83.4	88.6	68	71.7	2	4	270	0.00	29.973 
10:55	83.4	83.4	88.1	66	70.8	3	6	270	0.00	29.973 
11:00	83.6	83.6	89.0	68	71.9	2	4	270	0.00	29.977 
11:05	84.0	84.0	89.2	66	71.4	1	4	248	0.00	29.977 
11:10	83.8	83.8	88.8	66	71.2	2	5	315	0.00	29.977 
11:15	83.8	83.8	88.8	66	71.2	2	4	248	0.00	29.980 
11:20	83.8	83.8	88.8	66	71.2	2	4	270	0.00	29.980 
11:25	84.3	84.3	88.9	63	70.3	2	4	248	0.00	29.980 
11:30	84.3	84.3	88.9	63	70.3	2	5	248	0.00	29.981 
11:35	84.9	84.9	89.4	61	69.9	2	5	270	0.00	29.981 
11:40	85.5	85.5	89.5	58	69.0	3	5	248	0.00	29.981 
11:45	85.7	85.7	89.2	56	68.2	2	4	248	0.00	29.979 
11:50	86.5	86.5	90.6	56	68.9	2	5	270	0.00	29.979 
11:55	87.0	87.0	91.1	55	68.8	3	7	270	0.00	29.979 
12:00	87.0	87.0	90.8	54	68.3	3	6	270	0.00	29.977 
12:05	87.0	87.0	90.4	53	67.8	3	6	270	0.00	29.977 
12:10	87.2	87.2	90.4	52	67.4	3	6	270	0.00	29.977 
12:15	87.0	87.0	89.4	50	66.1	4	7	270	0.00	29.980 
12:20	86.5	86.5	88.3	49	65.0	4	7	270	0.00	29.980 
12:25	87.0	87.0	89.7	51	66.6	2	5	270	0.00	29.980 
12:30	87.4	87.4	90.1	50	66.4	3	5	248	0.00	29.975 
12:35	87.4	87.4	90.4	51	67.0	3	7	270	0.00	29.975 
12:40	87.2	87.2	90.1	51	66.8	3	6	270	0.00	29.975 
12:45	87.2	87.2	90.1	51	66.8	2	5	270	0.00	29.972 
12:50	87.0	87.0	89.1	49	65.5	2	7	292	0.00	29.972 
12:55	86.7	86.7	88.6	49	65.2	4	7	270	0.00	29.972 
13:00	87.0	87.0	88.5	47	64.3	3	6	292	0.00	29.965 
13:05	87.2	87.2	88.8	47	64.5	4	6	270	0.00	29.965 
13:10	87.6	87.6	89.1	46	64.2	3	9	270	0.00	29.965 
13:15	87.6	87.6	88.5	44	63.0	3	6	270	0.00	29.964 
13:20	87.4	87.4	88.5	45	63.4	3	6	315	0.00	29.964 
13:25	87.6	87.6	88.8	45	63.6	3	6	270	0.00	29.964 
13:30	87.8	87.8	89.4	46	64.4	3	7	270	0.00	29.964 
13:35	88.0	88.0	89.4	45	64.0	3	6	270	0.00	29.964 
13:40	87.6	87.6	89.1	46	64.2	4	6	270	0.00	29.964 
13:45	87.6	87.6	88.5	44	63.0	4	7	270	0.00	29.964 
13:50	87.4	87.4	88.5	45	63.4	3	5	315	0.00	29.964 
13:55	87.8	87.8	89.1	45	63.8	3	7	270	0.00	29.964 
14:00	87.8	87.8	88.8	44	63.1	3	6	270	0.00	29.956 
14:05	87.8	87.8	89.1	45	63.8	3	5	315	0.00	29.956 
14:10	87.8	87.8	88.5	43	62.5	3	8	315	0.00	29.956 
14:15	87.6	87.6	88.2	43	62.3	3	7	270	0.00	29.952 
14:20	87.6	87.6	88.5	44	63.0	2	4	315	0.00	29.952 
14:25	88.2	88.2	89.0	43	62.8	2	4	292	0.00	29.952 
14:30	88.6	88.6	89.9	44	63.9	2	5	292	0.00	29.943 
14:35	88.6	88.6	89.9	44	63.9	3	6	315	0.00	29.943 
14:40	89.0	89.0	90.2	43	63.6	2	4	292	0.00	29.943 
14:45	89.0	89.0	90.2	43	63.6	2	5	270	0.00	29.938 
14:50	88.6	88.6	89.6	43	63.2	3	6	270	0.00	29.938 
14:55	88.6	88.6	89.9	44	63.9	2	6	270	0.00	29.938 
15:00	88.8	88.8	89.6	42	62.7	3	9	270	0.00	29.934 
15:05	88.6	88.6	89.3	42	62.5	3	6	270	0.00	29.934 
15:10	88.6	88.6	89.3	42	62.5	2	6	292	0.00	29.934 
15:15	88.4	88.4	89.0	42	62.3	2	5	292	0.00	29.934 
15:20	88.4	88.4	89.6	44	63.7	2	6	270	0.00	29.934 
15:25	88.6	88.6	89.9	44	63.9	2	5	315	0.00	29.934 
15:30	88.4	88.4	89.6	44	63.7	2	3	315	0.00	29.928 
15:35	88.8	88.8	89.6	42	62.7	2	4	292	0.00	29.928 
15:40	89.0	89.0	90.5	44	64.2	2	5	270	0.00	29.928 
15:45	89.0	89.0	90.2	43	63.6	2	4	315	0.00	29.919 
15:50	88.6	88.6	89.9	44	63.9	2	4	292	0.00	29.919 
15:55	88.6	88.6	89.6	43	63.2	1	4	315	0.00	29.919 
16:00	88.8	88.8	89.9	43	63.4	2	4	315	0.00	29.916 
16:05	89.0	89.0	90.2	43	63.6	2	4	270	0.00	29.916 
16:10	89.3	89.3	90.6	43	63.8	2	4	270	0.00	29.916 
16:15	89.5	89.5	91.0	43	64.0	2	4	270	0.00	29.916 
16:20	89.0	89.0	89.9	42	62.9	2	6	270	0.00	29.916 
16:25	88.8	88.8	90.2	44	64.0	1	3	315	0.00	29.916 
16:30	89.0	89.0	89.9	42	62.9	2	5	315	0.00	29.911 
16:35	88.8	88.8	89.9	43	63.4	2	4	270	0.00	29.911 
16:40	88.2	88.2	89.0	43	62.8	2	4	270	0.00	29.911 
16:45	88.2	88.2	89.7	45	64.1	1	4	292	0.00	29.913 
16:50	88.4	88.4	89.0	42	62.3	2	4	315	0.00	29.913 
16:55	88.0	88.0	89.0	44	63.3	1	3	270	0.00	29.913 
17:00	88.4	88.4	90.0	45	64.3	1	4	270	0.00	29.909 
17:05	88.2	88.2	89.0	43	62.8	2	5	270	0.00	29.909 
17:10	87.8	87.8	88.8	44	63.1	2	4	315	0.00	29.909 
17:15	88.2	88.2	89.0	43	62.8	1	3	315	0.00	29.906 
17:20	87.6	87.6	88.8	45	63.6	1	5	270	0.00	29.906 
17:25	88.0	88.0	89.0	44	63.3	1	5	270	0.00	29.906 
17:30	88.2	88.2	89.3	44	63.5	1	4	315	0.00	29.910 
17:35	88.4	88.4	89.3	43	63.0	1	3	315	0.00	29.910 
17:40	88.0	88.0	89.0	44	63.3	2	4	270	0.00	29.910 
17:45	88.0	88.0	89.0	44	63.3	1	3	270	0.00	29.908 
17:50	87.8	87.8	88.8	44	63.1	2	4	270	0.00	29.908 
17:55	88.0	88.0	89.4	45	64.0	2	4	292	0.00	29.908 
18:00	87.4	87.4	88.8	46	64.0	2	4	292	0.00	29.915 
18:05	87.4	87.4	88.5	45	63.4	1	3	315	0.00	29.915 
18:10	87.4	87.4	88.5	45	63.4	1	3	270	0.00	29.915 
18:15	86.7	86.7	88.1	47	64.0	1	3	292	0.00	29.911 
18:20	86.7	86.7	87.8	46	63.4	1	3	292	0.00	29.911 
18:25	87.0	87.0	88.2	46	63.7	1	4	315	0.00	29.911 
18:30	87.0	87.0	88.2	46	63.7	1	3	292	0.00	29.907 
18:35	86.5	86.5	87.8	47	63.8	1	3	292	0.00	29.907 
18:40	86.1	86.1	87.5	48	64.1	0	2	292	0.00	29.907 
18:45	85.7	85.7	87.4	50	64.9	1	3	292	0.00	29.904 
18:50	85.5	85.5	87.2	50	64.7	1	3	292	0.00	29.904 
18:55	85.9	85.9	87.7	50	65.1	1	4	292	0.00	29.904 
19:00	86.1	86.1	88.0	50	65.3	1	3	270	0.00	29.905 
19:05	85.7	85.7	87.7	51	65.5	1	3	292	0.00	29.905 
19:10	85.7	85.7	87.7	51	65.5	1	2	292	0.00	29.905 
19:15	85.7	85.7	87.7	51	65.5	1	3	292	0.00	29.911 
19:20	85.7	85.7	87.7	51	65.5	1	3	292	0.00	29.911 
19:25	85.7	85.7	87.4	50	64.9	1	4	270	0.00	29.911 
19:30	85.3	85.3	87.1	51	65.1	1	4	270	0.00	29.918 
19:35	84.9	84.9	86.8	52	65.3	1	4	270	0.00	29.918 
19:40	84.5	84.5	86.3	52	64.9	1	2	270	0.00	29.918 
19:45	84.3	84.3	86.0	52	64.7	0	2	270	0.00	29.918 
19:50	84.1	84.1	85.9	53	65.1	1	2	270	0.00	29.918 
19:55	84.0	84.0	85.8	53	65.0	1	2	270	0.00	29.918 
20:00	84.0	84.0	85.8	53	65.0	1	4	270	0.00	29.917 
20:05	83.8	83.8	85.7	54	65.3	1	3	270	0.00	29.917 
20:10	83.8	83.8	85.7	54	65.3	1	5	270	0.00	29.917 
20:15	83.6	83.6	85.5	54	65.2	1	3	248	0.00	29.916 
20:20	83.6	83.6	85.5	54	65.2	1	3	248	0.00	29.916 
20:25	83.4	83.4	85.4	55	65.5	1	3	270	0.00	29.916 
20:30	83.4	83.4	85.4	55	65.5	1	3	270	0.00	29.922 
20:35	83.0	83.0	85.1	56	65.7	1	2	270	0.00	29.922 
20:40	82.8	82.8	85.0	57	66.0	0	2	270	0.00	29.922 
20:45	82.6	82.6	84.7	57	65.8	0	2	270	0.00	29.927 
20:50	82.4	82.4	84.6	58	66.1	1	2	270	0.00	29.927 
20:55	82.2	82.2	84.3	58	65.9	0	1	270	0.00	29.927 
21:00	82.0	82.0	84.2	59	66.2	0	2	270	0.00	29.922 
21:05	81.6	81.6	83.5	58	65.4	1	3	270	0.00	29.922 
21:10	81.6	81.6	83.7	59	65.9	1	3	270	0.00	29.922 
21:15	81.6	81.6	83.7	59	65.9	1	2	270	0.00	29.920 
21:20	81.4	81.4	83.4	59	65.7	0	2	270	0.00	29.920 
21:25	81.2	81.2	83.2	59	65.5	0	1	270	0.00	29.920 
21:30	80.9	80.9	82.9	60	65.7	0	1	270	0.00	29.920 
21:35	80.7	80.7	82.8	61	66.0	0	1	270	0.00	29.920 
21:40	80.5	80.5	82.5	61	65.8	0	1	270	0.00	29.920 
21:45	80.3	80.3	82.4	62	66.1	0	2	270	0.00	29.922 
21:50	80.3	80.3	82.4	62	66.1	0	1	270	0.00	29.922 
21:55	80.1	80.1	82.2	62	65.9	0	1	270	0.00	29.922 
22:00	79.9	79.9	81.9	62	65.7	0	1	270	0.00	29.924 
22:05	79.9	79.9	82.0	63	66.2	0	1	270	0.00	29.924 
22:10	79.8	79.8	81.9	63	66.1	0	1	270	0.00	29.924 
22:15	79.8	79.8	81.9	63	66.1	0	2	270	0.00	29.923 
22:20	79.8	79.8	81.9	63	66.1	1	3	270	0.00	29.923 
22:25	79.9	79.9	82.0	63	66.2	0	2	270	0.00	29.923 
22:30	79.8	79.8	81.9	63	66.1	1	3	270	0.00	29.929 
22:35	79.8	79.8	81.9	63	66.1	1	2	292	0.00	29.929 
22:40	79.8	79.8	81.9	63	66.1	1	3	292	0.00	29.929 
22:45	79.6	79.6	81.6	63	65.9	0	2	270	0.00	29.931 
22:50	79.4	79.4	81.5	64	66.1	1	3	270	0.00	29.931 
22:55	79.2	79.2	81.3	65	66.4	1	3	270	0.00	29.931 
23:00	79.0	79.0	81.0	65	66.2	1	2	270	0.00	29.933 
23:05	78.8	78.8	80.8	65	66.0	1	2	270	0.00	29.933 
23:10	78.6	78.6	80.6	66	66.3	1	3	270	0.00	29.933 
23:15	78.5	78.5	80.5	67	66.6	1	2	270	0.00	29.931 
23:20	78.3	78.3	80.3	67	66.4	1	4	270	0.00	29.931 
23:25	78.1	78.1	80.0	67	66.2	1	3	270	0.00	29.931 
23:30	77.9	77.9	79.8	68	66.5	1	2	270	0.00	29.933 
23:35	77.7	77.7	79.6	68	66.3	0	2	270	0.00	29.933 
23:40	77.7	77.7	79.6	68	66.3	1	2	270	0.00	29.933 
23:45	77.6	77.6	79.5	69	66.6	1	3	270	0.00	29.929 
23:50	77.6	77.6	79.5	69	66.6	0	2	270	0.00	29.929 
23:55	77.4	77.4	79.2	69	66.4	0	1	270	0.00	29.929 

CoCoRaHS
IN-AL-39
A2 Web Hosting
Creative Commons License
GoDaddy
search engine by freefind advanced

loaded 2018-11-15 03:22:19 • last modified 2010-11-18 10:43:29
Privacy PolicyDisclaimer
• wx.awcolley.com is powered by PmWiki v.2002016 •
• all content (unless otherwise noted) © 2018 A W Colley